Brooks AFB, Texas
Current Conditions -  °F | °C
As of 3:56 PM on Sunday 23 Nov 2014 (Local Time) from KSSF Reporting Station
Clear Clear  
Wind Chill: 80°   Ceiling: Unl
Heat Index: 80°   Visibility: 10mi
Dew Point: 43°   Wind: 12mph
Humidity: 27%   Direction: 240°WSW
Pressure: 29.56"   Gusts: NA
Location:  29.3423°N, 98.4394°W
Report Text: KSSF 232156Z 24010KT 10SM CLR 27/06 A2956 RMK AO2 T02670061
Loading
Personal Weather Stations






























Interactive Weather Map New forecast layout! Learn more

10-Day Weather Forecast

Advertisements
Track Severe Weather on mobile